createdAt,value
2022-11-22T00:00:44.148Z,22.57
2022-11-22T00:03:11.324Z,23.23
2022-11-22T00:05:38.723Z,26.20
2022-11-22T00:08:06.323Z,26.23
2022-11-22T00:10:33.267Z,26.40
2022-11-22T00:13:00.652Z,23.40
2022-11-22T00:15:27.848Z,19.33
2022-11-22T00:17:54.751Z,21.70
2022-11-22T00:20:21.938Z,17.47
2022-11-22T00:22:48.961Z,25.77
2022-11-22T00:25:16.245Z,28.13
2022-11-22T00:27:43.395Z,21.03
2022-11-22T00:30:10.898Z,23.83
2022-11-22T00:32:37.880Z,23.80
2022-11-22T00:35:05.175Z,27.77
2022-11-22T00:37:32.466Z,19.50
2022-11-22T00:39:59.350Z,24.97
2022-11-22T00:42:26.359Z,20.57
2022-11-22T00:44:53.245Z,28.63
2022-11-22T00:47:20.228Z,27.60
2022-11-22T00:49:47.230Z,27.60
2022-11-22T00:52:14.165Z,23.80
2022-11-22T00:54:41.611Z,23.40
2022-11-22T00:57:08.719Z,22.80
2022-11-22T00:59:35.609Z,22.87
2022-11-22T01:02:02.550Z,23.83
2022-11-22T01:04:29.521Z,20.53
2022-11-22T01:06:56.601Z,24.17
2022-11-22T01:09:24.229Z,16.40
2022-11-22T01:11:51.783Z,23.63
2022-11-22T01:14:19.612Z,19.63
2022-11-22T01:16:47.519Z,24.07
2022-11-22T01:19:14.795Z,24.67
2022-11-22T01:21:41.815Z,20.43
2022-11-22T01:24:09.414Z,23.73
2022-11-22T01:26:36.737Z,18.40
2022-11-22T01:29:04.212Z,22.53
2022-11-22T01:31:31.332Z,26.90
2022-11-22T01:33:59.340Z,25.97
2022-11-22T01:36:27.168Z,23.53
2022-11-22T01:38:54.121Z,32.10
2022-11-22T01:41:21.117Z,22.03
2022-11-22T01:43:48.079Z,21.27
2022-11-22T01:46:30.392Z,25.30
2022-11-22T01:49:04.747Z,26.40
2022-11-22T01:51:39.294Z,23.47
2022-11-22T01:54:10.563Z,26.43
2022-11-22T01:56:39.784Z,25.23
2022-11-22T01:59:12.616Z,22.90
2022-11-22T02:01:39.927Z,25.23
2022-11-22T02:04:13.341Z,21.93
2022-11-22T02:06:53.783Z,22.23
2022-11-22T02:09:22.104Z,23.90
2022-11-22T02:11:53.074Z,25.67
2022-11-22T02:14:25.058Z,25.90
2022-11-22T02:16:52.031Z,31.07
2022-11-22T02:19:44.155Z,27.97
2022-11-22T02:22:49.812Z,25.33
2022-11-22T02:25:32.095Z,27.50
2022-11-22T02:27:59.403Z,24.33
2022-11-22T02:30:26.440Z,25.07
2022-11-22T02:32:53.323Z,23.03
2022-11-22T02:35:23.970Z,25.70
2022-11-22T02:38:13.258Z,24.60
2022-11-22T02:41:08.848Z,29.73
2022-11-22T02:43:46.250Z,24.63
2022-11-22T02:46:21.823Z,26.20
2022-11-22T02:48:49.377Z,26.60
2022-11-22T02:51:20.061Z,24.30
2022-11-22T02:53:48.554Z,24.20
2022-11-22T02:56:16.400Z,25.67
2022-11-22T02:58:44.451Z,26.33
2022-11-22T03:01:13.073Z,26.63
2022-11-22T03:03:40.034Z,25.87
2022-11-22T03:06:07.119Z,25.53
2022-11-22T03:08:34.112Z,23.87
2022-11-22T03:11:01.065Z,22.43
2022-11-22T03:13:28.072Z,23.13
2022-11-22T03:15:54.983Z,27.97
2022-11-22T03:18:22.066Z,31.47
2022-11-22T03:20:48.935Z,23.83
2022-11-22T03:23:15.950Z,27.10
2022-11-22T03:25:42.967Z,30.03
2022-11-22T03:28:09.936Z,26.50
2022-11-22T03:30:40.538Z,25.90
2022-11-22T03:33:07.569Z,26.20
2022-11-22T03:35:34.452Z,27.33
2022-11-22T03:38:01.776Z,23.07
2022-11-22T03:40:29.173Z,20.30
2022-11-22T03:43:00.324Z,23.37
2022-11-22T03:45:31.138Z,19.90
2022-11-22T03:47:58.193Z,26.93
2022-11-22T03:50:25.822Z,23.97
2022-11-22T03:52:52.804Z,25.87
2022-11-22T03:55:19.823Z,22.03
2022-11-22T03:57:46.854Z,27.63
2022-11-22T04:00:15.323Z,19.13
2022-11-22T04:02:43.883Z,22.87
2022-11-22T04:05:10.945Z,21.60
2022-11-22T04:07:38.057Z,26.37
2022-11-22T04:10:06.089Z,22.60
2022-11-22T04:12:33.293Z,22.83
2022-11-22T04:15:09.421Z,23.57
2022-11-22T04:17:45.243Z,18.25
2022-11-22T04:20:33.964Z,25.17
2022-11-22T04:23:18.750Z,21.03
2022-11-22T04:25:53.966Z,16.20
2022-11-22T04:28:40.456Z,22.03
2022-11-22T04:31:29.433Z,28.07
2022-11-22T04:33:56.368Z,19.37
2022-11-22T04:36:23.246Z,21.50
2022-11-22T04:38:50.086Z,22.17
2022-11-22T04:41:17.126Z,18.70
2022-11-22T04:44:02.728Z,21.33
2022-11-22T04:46:31.542Z,21.93
2022-11-22T04:48:58.494Z,25.20
2022-11-22T04:51:44.188Z,21.73
2022-11-22T04:54:11.293Z,20.70
2022-11-22T04:56:38.240Z,20.40
2022-11-22T04:59:05.414Z,19.60
2022-11-22T05:01:32.409Z,24.30
2022-11-22T05:03:59.319Z,23.93
2022-11-22T05:06:26.368Z,24.17
2022-11-22T05:08:53.364Z,26.20
2022-11-22T05:11:20.312Z,23.13
2022-11-22T05:13:47.196Z,20.13
2022-11-22T05:16:15.508Z,12.30
2022-11-22T05:18:42.512Z,23.73
2022-11-22T05:21:12.023Z,20.73
2022-11-22T05:23:54.231Z,23.97
2022-11-22T05:26:27.396Z,20.77
2022-11-22T05:28:54.666Z,18.80
2022-11-22T05:31:23.647Z,21.63
2022-11-22T05:33:52.540Z,22.23
2022-11-22T05:36:20.310Z,14.50
2022-11-22T05:38:47.921Z,17.00
2022-11-22T05:41:16.332Z,19.57
2022-11-22T05:43:43.831Z,16.23
2022-11-22T05:46:14.282Z,16.63
2022-11-22T05:48:44.935Z,17.03
2022-11-22T05:51:17.529Z,16.23
2022-11-22T05:53:45.792Z,17.97
2022-11-22T05:56:15.341Z,15.73
2022-11-22T05:58:42.523Z,14.97
2022-11-22T06:01:12.685Z,14.80
2022-11-22T06:03:39.801Z,15.90
2022-11-22T06:06:07.897Z,19.47
2022-11-22T06:08:37.369Z,14.33
2022-11-22T06:11:06.433Z,14.43
2022-11-22T06:13:37.867Z,19.20
2022-11-22T06:16:06.217Z,14.97
2022-11-22T06:18:33.661Z,11.87
2022-11-22T06:21:02.266Z,12.37
2022-11-22T06:23:29.644Z,12.27
2022-11-22T06:26:00.944Z,13.60
2022-11-22T06:28:30.007Z,17.43
2022-11-22T06:31:04.828Z,15.20
2022-11-22T06:33:31.940Z,10.37
2022-11-22T06:36:07.667Z,12.63
2022-11-22T06:38:34.773Z,12.87
2022-11-22T06:41:02.544Z,10.57
2022-11-22T06:43:30.512Z,11.23
2022-11-22T06:45:59.204Z,12.17
2022-11-22T06:48:29.035Z,11.90
2022-11-22T06:51:11.488Z,13.37
2022-11-22T06:53:47.272Z,12.33
2022-11-22T06:56:39.294Z,14.82
2022-11-22T06:59:07.711Z,7.50
2022-11-22T07:01:36.071Z,10.97
2022-11-22T07:04:04.149Z,19.50
2022-11-22T07:06:38.884Z,12.37
2022-11-22T07:09:09.041Z,11.60
2022-11-22T07:11:36.468Z,11.60
2022-11-22T07:14:08.230Z,14.37
2022-11-22T07:16:36.547Z,13.97
2022-11-22T07:19:04.393Z,13.83
2022-11-22T07:21:32.524Z,15.20
2022-11-22T07:23:59.437Z,18.17
2022-11-22T07:26:28.713Z,10.93
2022-11-22T07:28:56.193Z,11.47
2022-11-22T07:31:23.224Z,12.10
2022-11-22T07:33:50.254Z,9.50
2022-11-22T07:36:19.545Z,8.70
2022-11-22T07:38:48.058Z,9.57
2022-11-22T07:41:16.377Z,11.47
2022-11-22T07:43:43.587Z,6.60
2022-11-22T07:46:31.624Z,8.63
2022-11-22T07:49:00.160Z,10.53
2022-11-22T07:51:27.334Z,10.27
2022-11-22T07:53:55.864Z,9.23
2022-11-22T07:56:23.336Z,10.40
2022-11-22T07:58:50.760Z,10.40
2022-11-22T08:01:19.998Z,9.50
2022-11-22T08:03:47.547Z,10.03
2022-11-22T08:06:15.375Z,7.73
2022-11-22T08:08:42.388Z,12.03
2022-11-22T08:11:10.971Z,7.50
2022-11-22T08:13:38.161Z,10.40
2022-11-22T08:16:08.029Z,6.40
2022-11-22T08:18:36.018Z,14.00
2022-11-22T08:21:11.479Z,10.50
2022-11-22T08:23:39.316Z,11.37
2022-11-22T08:26:08.980Z,9.97
2022-11-22T08:28:36.342Z,5.30
2022-11-22T08:31:06.776Z,12.30
2022-11-22T08:33:33.740Z,6.00
2022-11-22T08:36:00.974Z,7.00
2022-11-22T08:38:28.223Z,6.83
2022-11-22T08:40:55.405Z,9.97
2022-11-22T08:43:22.632Z,6.97
2022-11-22T08:45:54.543Z,10.13
2022-11-22T08:48:22.515Z,9.20
2022-11-22T08:50:54.760Z,7.70
2022-11-22T08:53:22.683Z,6.73
2022-11-22T08:55:50.188Z,7.37
2022-11-22T08:58:17.420Z,6.33
2022-11-22T09:00:44.760Z,7.63
2022-11-22T09:03:11.827Z,8.53
2022-11-22T09:08:27.140Z,6.45
2022-11-22T09:11:05.977Z,13.20
2022-11-22T09:13:33.931Z,5.43
2022-11-22T09:16:15.214Z,10.60
2022-11-22T09:18:42.343Z,8.40
2022-11-22T09:21:16.030Z,7.93
2022-11-22T09:23:44.103Z,5.20
2022-11-22T09:26:13.815Z,9.17
2022-11-22T09:28:41.142Z,6.00
2022-11-22T09:31:13.471Z,7.83
2022-11-22T09:33:42.138Z,9.00
2022-11-22T09:36:28.358Z,11.70
2022-11-22T09:38:56.466Z,8.10
2022-11-22T09:41:35.651Z,5.73
2022-11-22T09:44:26.799Z,5.40
2022-11-22T09:47:11.115Z,8.40
2022-11-22T09:49:38.168Z,8.50
2022-11-22T09:52:13.839Z,6.33
2022-11-22T09:55:11.448Z,9.70
2022-11-22T09:57:44.448Z,10.45
2022-11-22T10:00:25.989Z,8.18
2022-11-22T10:03:04.403Z,7.63
2022-11-22T10:05:39.878Z,10.27
2022-11-22T10:08:32.355Z,6.00
2022-11-22T10:11:04.418Z,7.90
2022-11-22T10:13:40.054Z,21.15
2022-11-22T10:16:29.828Z,9.10
2022-11-22T10:19:10.321Z,8.53
2022-11-22T10:21:37.248Z,10.43
2022-11-22T10:24:04.695Z,9.85
2022-11-22T10:26:33.834Z,11.18
2022-11-22T10:29:23.391Z,6.80
2022-11-22T10:32:00.204Z,4.93
2022-11-22T10:37:09.657Z,6.50
2022-11-22T10:40:14.512Z,7.57
2022-11-22T10:42:59.664Z,6.82
2022-11-22T10:45:55.640Z,4.68
2022-11-22T10:48:42.904Z,6.95
2022-11-22T10:51:24.441Z,6.30
2022-11-22T10:54:03.361Z,5.53
2022-11-22T10:56:43.463Z,7.57
2022-11-22T10:59:45.784Z,9.67
2022-11-22T11:02:18.479Z,5.85
2022-11-22T11:04:47.029Z,7.90
2022-11-22T11:07:21.957Z,5.55
2022-11-22T11:10:23.841Z,6.45
2022-11-22T11:12:56.552Z,4.55
2022-11-22T11:15:43.421Z,9.00
2022-11-22T11:18:25.542Z,10.75
2022-11-22T11:20:53.923Z,6.85
2022-11-22T11:23:21.004Z,4.45
2022-11-22T11:25:49.186Z,6.57
2022-11-22T11:28:32.107Z,8.05
2022-11-22T11:31:07.230Z,8.77
2022-11-22T11:33:38.401Z,7.20
2022-11-22T11:36:11.270Z,5.53
2022-11-22T11:38:41.210Z,6.35
2022-11-22T11:41:18.852Z,10.13
2022-11-22T11:43:46.067Z,7.07
2022-11-22T11:46:26.043Z,12.05
2022-11-22T11:48:55.340Z,8.07
2022-11-22T11:51:42.918Z,6.80
2022-11-22T11:54:19.765Z,10.40
2022-11-22T11:59:19.885Z,6.40
2022-11-22T12:01:58.605Z,8.18
2022-11-22T12:04:36.235Z,8.82
2022-11-22T12:07:35.257Z,11.05
2022-11-22T12:10:24.009Z,8.38
2022-11-22T12:13:00.148Z,6.95
2022-11-22T12:15:41.750Z,10.17
2022-11-22T12:18:42.247Z,5.40
2022-11-22T12:21:46.925Z,7.25
2022-11-22T12:24:45.307Z,7.68
2022-11-22T12:27:10.679Z,13.23
2022-11-22T12:29:40.060Z,7.82
2022-11-22T12:32:14.895Z,8.88
2022-11-22T12:35:05.623Z,10.73
2022-11-22T12:37:42.085Z,9.57
2022-11-22T12:40:42.085Z,6.28
2022-11-22T12:43:24.593Z,14.73
2022-11-22T12:45:56.670Z,9.57
2022-11-22T12:48:37.137Z,17.35
2022-11-22T12:51:13.597Z,8.03
2022-11-22T12:53:44.852Z,7.13
2022-11-22T12:56:18.880Z,8.80
2022-11-22T12:58:55.939Z,13.07
2022-11-22T13:01:35.192Z,8.43
2022-11-22T13:04:26.297Z,7.35
2022-11-22T13:07:02.008Z,8.45
2022-11-22T13:09:33.648Z,10.48
2022-11-22T13:12:12.287Z,10.82
2022-11-22T13:14:55.347Z,9.25
2022-11-22T13:17:24.865Z,14.25
2022-11-22T13:20:01.495Z,10.53
2022-11-22T13:22:58.345Z,8.32
2022-11-22T13:25:53.723Z,10.75
2022-11-22T13:28:25.851Z,10.00
2022-11-22T13:31:11.117Z,9.93
2022-11-22T13:33:48.017Z,9.52
2022-11-22T13:36:27.163Z,7.70
2022-11-22T13:38:59.531Z,8.10
2022-11-22T13:41:39.197Z,7.93
2022-11-22T13:44:31.178Z,10.13
2022-11-22T13:47:00.682Z,6.38
2022-11-22T13:49:37.991Z,7.72
2022-11-22T13:52:13.250Z,7.55
2022-11-22T13:54:57.121Z,12.45
2022-11-22T13:57:29.902Z,8.90
2022-11-22T14:00:11.813Z,7.87
2022-11-22T14:03:28.499Z,7.13
2022-11-22T14:05:57.117Z,7.13
2022-11-22T14:08:36.296Z,6.07
2022-11-22T14:11:24.763Z,10.82
2022-11-22T14:14:26.975Z,6.97
2022-11-22T14:17:08.782Z,6.22
2022-11-22T14:19:43.830Z,7.57
2022-11-22T14:22:33.896Z,6.45
2022-11-22T14:25:22.580Z,5.80
2022-11-22T14:28:34.498Z,5.97
2022-11-22T14:31:14.453Z,11.60
2022-11-22T14:34:14.670Z,8.60
2022-11-22T14:36:42.103Z,7.90
2022-11-22T14:39:56.329Z,8.35
2022-11-22T14:42:40.125Z,6.60
2022-11-22T14:45:12.742Z,8.23
2022-11-22T14:47:52.109Z,9.18
2022-11-22T14:50:54.982Z,9.95
2022-11-22T14:54:00.110Z,6.90
2022-11-22T14:56:34.467Z,7.27
2022-11-22T14:59:01.290Z,7.72
2022-11-22T15:01:38.903Z,8.95
2022-11-22T15:09:10.286Z,10.10
2022-11-22T15:09:22.730Z,6.60
2022-11-22T15:10:48.732Z,5.25
2022-11-22T15:13:45.398Z,3.50
2022-11-22T15:57:26.494Z,7.80
2022-11-22T15:59:54.908Z,4.65
2022-11-22T16:02:29.880Z,8.02
2022-11-22T16:06:06.353Z,4.57
2022-11-22T16:07:52.216Z,12.55
2022-11-22T16:10:45.634Z,6.55
2022-11-22T16:13:18.744Z,8.48
2022-11-22T16:16:04.047Z,5.70
2022-11-22T16:18:31.410Z,8.63
2022-11-22T16:21:03.700Z,7.18
2022-11-22T16:23:33.428Z,9.23
2022-11-22T16:26:25.066Z,10.18
2022-11-22T16:28:54.170Z,8.38
2022-11-22T16:31:31.625Z,6.70
2022-11-22T16:33:59.078Z,27.50
2022-11-22T16:36:30.283Z,8.35
2022-11-22T16:38:57.198Z,9.32
2022-11-22T16:41:24.079Z,13.40
2022-11-22T16:43:54.359Z,8.10
2022-11-22T16:46:22.103Z,8.43
2022-11-22T16:48:49.836Z,10.70
2022-11-22T16:51:24.195Z,8.15
2022-11-22T16:53:53.477Z,9.52
2022-11-22T16:56:23.270Z,11.38
2022-11-22T16:58:52.013Z,10.23
2022-11-22T17:01:24.591Z,8.45
2022-11-22T17:03:55.445Z,8.43
2022-11-22T17:06:25.052Z,9.10
2022-11-22T17:08:54.575Z,10.57
2022-11-22T17:11:25.502Z,9.55
2022-11-22T17:13:52.929Z,12.43
2022-11-22T17:16:20.269Z,13.30
2022-11-22T17:18:48.342Z,9.02
2022-11-22T17:21:32.964Z,12.95
2022-11-22T17:24:13.696Z,12.18
2022-11-22T17:26:40.594Z,11.30
2022-11-22T17:29:11.090Z,19.92
2022-11-22T17:31:48.949Z,18.55
2022-11-22T17:34:16.276Z,14.25
2022-11-22T17:36:43.392Z,19.50
2022-11-22T17:39:14.478Z,18.02
2022-11-22T17:41:42.071Z,19.48
2022-11-22T17:44:15.303Z,17.05
2022-11-22T17:46:44.237Z,16.13
2022-11-22T17:49:16.251Z,18.50
2022-11-22T17:51:44.080Z,20.70
2022-11-22T17:54:10.991Z,21.73
2022-11-22T17:56:40.160Z,20.40
2022-11-22T17:59:07.517Z,18.25
2022-11-22T18:01:36.996Z,19.42
2022-11-22T18:04:04.130Z,15.07
2022-11-22T18:06:31.584Z,17.63
2022-11-22T18:08:59.006Z,19.67
2022-11-22T18:11:26.239Z,19.60
2022-11-22T18:13:53.255Z,18.55
2022-11-22T18:16:20.245Z,19.48
2022-11-22T18:19:02.603Z,19.40
2022-11-22T18:21:32.188Z,16.80
2022-11-22T18:24:00.247Z,16.77
2022-11-22T18:26:43.712Z,16.27
2022-11-22T18:32:01.388Z,18.50
2022-11-22T18:34:30.433Z,16.30
2022-11-22T18:37:02.046Z,17.20
2022-11-22T18:39:32.942Z,15.40
2022-11-22T18:42:00.273Z,16.40
2022-11-22T18:44:27.488Z,14.55
2022-11-22T18:46:54.467Z,21.73
2022-11-22T18:49:21.657Z,21.00
2022-11-22T18:51:48.788Z,14.25
2022-11-22T18:54:16.239Z,13.35
2022-11-22T18:56:43.276Z,12.68
2022-11-22T18:59:14.808Z,14.05
2022-11-22T19:01:42.096Z,18.00
2022-11-22T19:04:14.284Z,13.65
2022-11-22T19:06:42.156Z,14.48
2022-11-22T19:09:10.134Z,12.10
2022-11-22T19:11:37.398Z,11.90
2022-11-22T19:14:04.955Z,11.40
2022-11-22T19:16:32.055Z,13.13
2022-11-22T19:18:59.712Z,16.23
2022-11-22T19:21:28.356Z,13.43
2022-11-22T19:23:56.551Z,11.35
2022-11-22T19:26:27.781Z,13.45
2022-11-22T19:28:56.461Z,16.98
2022-11-22T19:31:29.312Z,13.57
2022-11-22T19:33:57.122Z,13.70
2022-11-22T19:36:32.186Z,13.60
2022-11-22T19:39:00.273Z,14.00
2022-11-22T19:41:27.322Z,13.02
2022-11-22T19:43:56.588Z,17.35
2022-11-22T19:46:25.266Z,17.88
2022-11-22T19:48:53.795Z,16.17
2022-11-22T19:51:21.762Z,12.50
2022-11-22T19:53:49.072Z,17.02
2022-11-22T19:56:18.127Z,13.37
2022-11-22T19:58:50.843Z,12.57
2022-11-22T20:01:18.411Z,14.52
2022-11-22T20:03:46.213Z,10.77
2022-11-22T20:06:14.247Z,11.10
2022-11-22T20:08:41.784Z,8.02
2022-11-22T20:11:11.085Z,9.25
2022-11-22T20:13:40.452Z,10.83
2022-11-22T20:16:07.721Z,7.78
2022-11-22T20:18:34.817Z,9.38
2022-11-22T20:21:04.220Z,9.00
2022-11-22T20:23:32.304Z,9.35
2022-11-22T20:26:11.592Z,7.78
2022-11-22T20:28:39.898Z,6.35
2022-11-22T20:31:17.360Z,6.68
2022-11-22T20:33:49.702Z,9.88
2022-11-22T20:36:18.782Z,6.60
2022-11-22T20:38:47.097Z,13.32
2022-11-22T20:41:15.327Z,11.25
2022-11-22T20:43:42.470Z,6.63
2022-11-22T20:46:14.944Z,12.68
2022-11-22T20:48:43.701Z,7.35
2022-11-22T20:51:14.000Z,6.30
2022-11-22T20:53:42.114Z,12.63
2022-11-22T20:56:09.439Z,9.57
2022-11-22T20:58:36.598Z,5.20
2022-11-22T21:01:12.285Z,8.35
2022-11-22T21:03:39.180Z,6.72
2022-11-22T21:06:06.811Z,7.20
2022-11-22T21:08:34.016Z,7.20
2022-11-22T21:11:51.500Z,5.90
2022-11-22T21:18:09.161Z,7.45
2022-11-22T21:20:52.965Z,6.47
2022-11-22T21:23:26.205Z,6.90
2022-11-22T21:25:53.111Z,8.50
2022-11-22T21:28:19.992Z,8.35
2022-11-22T21:30:46.887Z,4.68
2022-11-22T21:33:13.766Z,4.22
2022-11-22T21:35:45.014Z,5.90
2022-11-22T21:38:14.413Z,4.03
2022-11-22T21:40:49.485Z,3.80
2022-11-22T21:43:16.509Z,3.92
2022-11-22T21:45:43.388Z,3.80
2022-11-22T21:48:10.356Z,4.07
2022-11-22T21:50:37.337Z,6.05
2022-11-22T21:53:04.582Z,4.18
2022-11-22T21:55:31.546Z,3.47
2022-11-22T21:57:58.477Z,3.85
2022-11-22T22:00:25.465Z,3.60
2022-11-22T22:02:52.390Z,5.97
2022-11-22T22:05:19.702Z,4.82
2022-11-22T22:07:52.659Z,3.67
2022-11-22T22:10:20.053Z,5.43
2022-11-22T22:12:50.786Z,5.40
2022-11-22T22:15:18.558Z,6.70
2022-11-22T22:17:45.788Z,5.75
2022-11-22T22:20:13.295Z,6.85
2022-11-22T22:22:40.187Z,6.60
2022-11-22T22:25:07.812Z,9.13
2022-11-22T22:27:35.091Z,8.00
2022-11-22T22:30:02.179Z,6.82
2022-11-22T22:32:31.311Z,7.10
2022-11-22T22:34:58.193Z,7.97
2022-11-22T22:37:25.355Z,7.32
2022-11-22T22:39:52.375Z,5.72
2022-11-22T22:42:19.904Z,6.75
2022-11-22T22:44:47.499Z,7.22
2022-11-22T22:47:14.944Z,6.55
2022-11-22T22:49:41.822Z,11.30
2022-11-22T22:52:08.762Z,7.05
2022-11-22T22:54:36.171Z,6.72
2022-11-22T22:57:03.628Z,8.13
2022-11-22T22:59:31.099Z,11.73
2022-11-22T23:01:58.227Z,7.85
2022-11-22T23:04:25.237Z,8.90
2022-11-22T23:06:53.498Z,8.98
2022-11-22T23:09:20.549Z,9.10
2022-11-22T23:12:06.269Z,7.72
2022-11-22T23:14:33.344Z,10.60
2022-11-22T23:17:00.292Z,9.55
2022-11-22T23:19:27.852Z,10.15
2022-11-22T23:21:55.234Z,8.00
2022-11-22T23:24:22.222Z,10.38
2022-11-22T23:26:49.116Z,12.88
2022-11-22T23:29:16.209Z,10.98
2022-11-22T23:31:43.066Z,8.10
2022-11-22T23:34:11.654Z,9.15
2022-11-22T23:36:40.869Z,12.32
2022-11-22T23:39:09.122Z,14.85
2022-11-22T23:41:36.070Z,11.48
2022-11-22T23:44:03.109Z,11.68
2022-11-22T23:46:30.272Z,11.88
2022-11-22T23:48:59.159Z,12.15
2022-11-22T23:51:27.737Z,13.82
2022-11-22T23:53:59.682Z,12.88
2022-11-22T23:56:29.291Z,15.30
2022-11-22T23:58:59.175Z,14.45
